sensor_id;sensor_type;location;lat;lon;timestamp;temperature;humidity
43414;DHT22;73638;49.676;8.606;2024-03-23T00:53:18;12.6684;68.4779
43414;DHT22;73638;49.676;8.606;2024-03-23T00:58:25;12.7459;68.3787
43414;DHT22;73638;49.676;8.606;2024-03-23T01:03:32;12.85;68.072
43414;DHT22;73638;49.676;8.606;2024-03-23T01:08:39;12.9809;68.2567
43414;DHT22;73638;49.676;8.606;2024-03-23T01:13:46;13.1357;67.8752
43414;DHT22;73638;49.676;8.606;2024-03-23T01:18:53;13.1998;67.9988
43414;DHT22;73638;49.676;8.606;2024-03-23T01:24:00;13.3814;67.5807
43414;DHT22;73638;49.676;8.606;2024-03-23T01:29:06;13.36;67.3228
43414;DHT22;73638;49.676;8.606;2024-03-23T01:34:13;13.2132;67.2496
43414;DHT22;73638;49.676;8.606;2024-03-23T01:39:20;13.2906;67.7165
43414;DHT22;73638;49.676;8.606;2024-03-23T01:44:27;13.3253;67.9622
43414;DHT22;73638;49.676;8.606;2024-03-23T01:49:36;13.3814;68.011
43414;DHT22;73638;49.676;8.606;2024-03-23T01:54:43;13.4215;68.0842
43414;DHT22;73638;49.676;8.606;2024-03-23T01:59:49;13.5283;67.7409
43414;DHT22;73638;49.676;8.606;2024-03-23T02:04:56;13.5283;67.7897
43414;DHT22;73638;49.676;8.606;2024-03-23T02:10:04;13.5069;67.6417
43414;DHT22;73638;49.676;8.606;2024-03-23T02:15:10;13.4562;67.8264
43414;DHT22;73638;49.676;8.606;2024-03-23T02:20:17;13.3654;67.6661
43414;DHT22;73638;49.676;8.606;2024-03-23T02:25:24;13.3387;67.9866
43414;DHT22;73638;49.676;8.606;2024-03-23T02:30:31;13.3253;67.924
43414;DHT22;73638;49.676;8.606;2024-03-23T02:35:38;13.2265;67.9622
43414;DHT22;73638;49.676;8.606;2024-03-23T02:40:45;13.2345;68.2811
43414;DHT22;73638;49.676;8.606;2024-03-23T02:45:52;13.296;68.2078
43414;DHT22;73638;49.676;8.606;2024-03-23T02:50:59;13.2399;68.2322
43414;DHT22;73638;49.676;8.606;2024-03-23T02:56:06;13.3253;68.1208
43414;DHT22;73638;49.676;8.606;2024-03-23T03:01:12;13.3734;67.95
43414;DHT22;73638;49.676;8.606;2024-03-23T03:06:23;13.296;67.7165
43414;DHT22;73638;49.676;8.606;2024-03-23T03:11:26;13.1277;67.483
43414;DHT22;73638;49.676;8.606;2024-03-23T03:16:33;13.0743;68.0964
43414;DHT22;73638;49.676;8.606;2024-03-23T03:21:40;13.101;68.4779
43414;DHT22;73638;49.676;8.606;2024-03-23T03:26:47;13.109;68.5878
43414;DHT22;73638;49.676;8.606;2024-03-23T03:31:53;13.093;68.8335
43414;DHT22;73638;49.676;8.606;2024-03-23T03:37:00;13.1704;68.7724
43414;DHT22;73638;49.676;8.606;2024-03-23T03:42:07;13.2692;68.5145
43414;DHT22;73638;49.676;8.606;2024-03-23T03:47:14;13.4081;67.8508
43414;DHT22;73638;49.676;8.606;2024-03-23T03:52:21;13.4428;67.5807
43414;DHT22;73638;49.676;8.606;2024-03-23T03:57:28;13.611;66.5492
43414;DHT22;73638;49.676;8.606;2024-03-23T04:02:40;13.6885;66.0243
43414;DHT22;73638;49.676;8.606;2024-03-23T04:07:42;13.6538;65.5772
43414;DHT22;73638;49.676;8.606;2024-03-23T04:12:48;13.7633;65.0034
43414;DHT22;73638;49.676;8.606;2024-03-23T04:17:55;13.7633;64.9668
43414;DHT22;73638;49.676;8.606;2024-03-23T04:23:02;13.6938;64.8203
43414;DHT22;73638;49.676;8.606;2024-03-23T04:28:09;13.6671;65.1972
43414;DHT22;73638;49.676;8.606;2024-03-23T04:33:16;13.7846;65.0278
43414;DHT22;73638;49.676;8.606;2024-03-23T04:38:23;13.7633;64.7211
43414;DHT22;73638;49.676;8.606;2024-03-23T04:43:30;13.814;64.8569
43414;DHT22;73638;49.676;8.606;2024-03-23T04:48:36;13.7579;65.1514
43414;DHT22;73638;49.676;8.606;2024-03-23T04:53:43;13.6671;65.9098
43414;DHT22;73638;49.676;8.606;2024-03-23T04:58:50;13.563;66.8437
43414;DHT22;73638;49.676;8.606;2024-03-23T05:03:57;13.0182;68.4169
43414;DHT22;73638;49.676;8.606;2024-03-23T05:09:03;12.396;69.3004
43414;DHT22;73638;49.676;8.606;2024-03-23T05:14:11;11.9127;70.721
43414;DHT22;73638;49.676;8.606;2024-03-23T05:19:16;11.6003;70.5241
43414;DHT22;73638;49.676;8.606;2024-03-23T05:24:22;11.2291;70.2663
43414;DHT22;73638;49.676;8.606;2024-03-23T05:29:29;11.0395;70.3899
43414;DHT22;73638;49.676;8.606;2024-03-23T05:34:35;10.7538;70.7546
43414;DHT22;73638;49.676;8.606;2024-03-23T05:39:42;10.6764;70.6676
43414;DHT22;73638;49.676;8.606;2024-03-23T05:44:48;10.4253;70.4463
43414;DHT22;73638;49.676;8.606;2024-03-23T05:49:54;10.1102;69.6727
43414;DHT22;73638;49.676;8.606;2024-03-23T05:55:01;10.0488;69.6605
43414;DHT22;73638;49.676;8.606;2024-03-23T06:00:08;9.8539;69.1447
43414;DHT22;73638;49.676;8.606;2024-03-23T06:05:14;9.6937;69.366
43414;DHT22;73638;49.676;8.606;2024-03-23T06:10:21;9.8192;68.9723
43414;DHT22;73638;49.676;8.606;2024-03-23T06:15:27;9.7204;68.6656
43414;DHT22;73638;49.676;8.606;2024-03-23T06:20:34;9.7337;68.7266
43414;DHT22;73638;49.676;8.606;2024-03-23T06:25:41;9.8753;68.5664
43414;DHT22;73638;49.676;8.606;2024-03-23T06:30:47;9.7898;68.3696
43414;DHT22;73638;49.676;8.606;2024-03-23T06:35:54;9.8245;67.6829
43414;DHT22;73638;49.676;8.606;2024-03-23T06:41:02;9.8806;67.9286
43414;DHT22;73638;49.676;8.606;2024-03-23T06:46:07;9.9928;67.3869
43414;DHT22;73638;49.676;8.606;2024-03-23T06:51:14;9.91;67.0069
43414;DHT22;73638;49.676;8.606;2024-03-23T06:56:21;9.7684;66.1707
43414;DHT22;73638;49.676;8.606;2024-03-23T07:01:27;9.8753;65.7771
43414;DHT22;73638;49.676;8.606;2024-03-23T07:06:34;9.7124;64.5853
43414;DHT22;73638;49.676;8.606;2024-03-23T07:11:41;9.5735;65.2125
43414;DHT22;73638;49.676;8.606;2024-03-23T07:16:47;9.2103;65.4658
43414;DHT22;73638;49.676;8.606;2024-03-23T07:21:54;9.3919;65.2445
43414;DHT22;73638;49.676;8.606;2024-03-23T07:27:01;9.651;64.1184
43414;DHT22;73638;49.676;8.606;2024-03-23T07:32:07;9.5815;63.9216
43414;DHT22;73638;49.676;8.606;2024-03-23T07:37:14;9.6216;64.0696
43414;DHT22;73638;49.676;8.606;2024-03-23T07:42:21;9.8032;64.3275
43414;DHT22;73638;49.676;8.606;2024-03-23T07:47:27;9.7898;63.8972
43414;DHT22;73638;49.676;8.606;2024-03-23T07:52:34;9.7417;62.8779
43414;DHT22;73638;49.676;8.606;2024-03-23T07:57:41;9.8672;63.357
43414;DHT22;73638;49.676;8.606;2024-03-23T08:02:51;9.894;62.6932
43414;DHT22;73638;49.676;8.606;2024-03-23T08:07:57;9.9847;61.7716
43414;DHT22;73638;49.676;8.606;2024-03-23T08:13:03;9.9233;61.9806
43414;DHT22;73638;49.676;8.606;2024-03-23T08:18:11;9.7204;62.5086
43414;DHT22;73638;49.676;8.606;2024-03-23T08:23:17;9.8245;62.2019
43414;DHT22;73638;49.676;8.606;2024-03-23T08:28:24;9.707;61.8708
43414;DHT22;73638;49.676;8.606;2024-03-23T08:33:34;9.902;62.0417
43414;DHT22;73638;49.676;8.606;2024-03-23T08:38:37;10.3479;61.7594
43414;DHT22;73638;49.676;8.606;2024-03-23T08:43:44;11.0208;60.6821
43414;DHT22;73638;49.676;8.606;2024-03-23T08:48:52;11.2772;59.2935
43414;DHT22;73638;49.676;8.606;2024-03-23T08:53:59;11.4935;59.5026
43414;DHT22;73638;49.676;8.606;2024-03-23T08:59:05;11.3626;59.1211
43414;DHT22;73638;49.676;8.606;2024-03-23T09:04:12;11.3333;58.7411
43414;DHT22;73638;49.676;8.606;2024-03-23T09:09:19;11.2505;58.9364
43414;DHT22;73638;49.676;8.606;2024-03-23T09:14:25;11.5576;58.5931
43414;DHT22;73638;49.676;8.606;2024-03-23T09:19:35;12.0596;56.4431
43414;DHT22;73638;49.676;8.606;2024-03-23T09:24:39;12.3613;55.6497
43414;DHT22;73638;49.676;8.606;2024-03-23T09:29:46;12.4575;55.4528
43414;DHT22;73638;49.676;8.606;2024-03-23T09:34:55;12.599;54.7524
43414;DHT22;73638;49.676;8.606;2024-03-23T09:40:14;12.5349;55.3674
43414;DHT22;73638;49.676;8.606;2024-03-23T09:45:17;12.5002;55.0469
43414;DHT22;73638;49.676;8.606;2024-03-23T09:50:16;12.5643;54.2367
43414;DHT22;73638;49.676;8.606;2024-03-23T09:55:22;12.7512;55.1705
43414;DHT22;73638;49.676;8.606;2024-03-23T10:00:38;12.9461;53.6461
43414;DHT22;73638;49.676;8.606;2024-03-23T10:05:45;12.9809;53.6339
43414;DHT22;73638;49.676;8.606;2024-03-23T10:10:44;13.1651;53.9284
43414;DHT22;73638;49.676;8.606;2024-03-23T10:15:55;13.2692;53.3761
43414;DHT22;73638;49.676;8.606;2024-03-23T10:21:07;13.4295;53.2525
43414;DHT22;73638;49.676;8.606;2024-03-23T10:26:20;13.4562;51.7906
43414;DHT22;73638;49.676;8.606;2024-03-23T10:31:11;13.4642;49.7261
43414;DHT22;73638;49.676;8.606;2024-03-23T10:36:18;13.3654;49.0257
43414;DHT22;73638;49.676;8.606;2024-03-23T10:41:26;13.4722;49.2348
43414;DHT22;73638;49.676;8.606;2024-03-23T10:46:31;13.6378;47.7607
43414;DHT22;73638;49.676;8.606;2024-03-23T10:51:38;13.7152;46.659
43414;DHT22;73638;49.676;8.606;2024-03-23T10:56:46;13.5683;47.8096
43414;DHT22;73638;49.676;8.606;2024-03-23T11:01:55;13.5336;48.4611
43414;DHT22;73638;49.676;8.606;2024-03-23T11:06:58;13.4375;47.2938
43414;DHT22;73638;49.676;8.606;2024-03-23T11:12:17;13.352;47.6005
43414;DHT22;73638;49.676;8.606;2024-03-23T11:17:17;12.2972;51.3313
43414;DHT22;73638;49.676;8.606;2024-03-23T11:22:37;11.2024;54.2306
43414;DHT22;73638;49.676;8.606;2024-03-23T11:27:24;10.5455;55.5795
43414;DHT22;73638;49.676;8.606;2024-03-23T11:32:32;10.6924;56.9543
43414;DHT22;73638;49.676;8.606;2024-03-23T11:37:38;10.9834;55.7671
43414;DHT22;73638;49.676;8.606;2024-03-23T11:42:44;11.1116;55.2758
43414;DHT22;73638;49.676;8.606;2024-03-23T11:48:02;11.0208;55.6191
43414;DHT22;73638;49.676;8.606;2024-03-23T11:53:15;11.1383;55.0546
43414;DHT22;73638;49.676;8.606;2024-03-23T11:58:04;11.2638;54.1085
43414;DHT22;73638;49.676;8.606;2024-03-23T12:03:11;11.4935;54.3786
43414;DHT22;73638;49.676;8.606;2024-03-23T12:08:22;12.2145;54.6853
43414;DHT22;73638;49.676;8.606;2024-03-23T12:13:25;12.6471;53.7453
43414;DHT22;73638;49.676;8.606;2024-03-23T12:18:32;12.8714;54.8013
43414;DHT22;73638;49.676;8.606;2024-03-23T12:23:40;12.85;55.0713
43414;DHT22;73638;49.676;8.606;2024-03-23T12:28:46;12.7646;55.1202
43414;DHT22;73638;49.676;8.606;2024-03-23T12:33:53;12.7165;54.6792
43414;DHT22;73638;49.676;8.606;2024-03-23T12:39:00;12.4922;55.0469
43414;DHT22;73638;49.676;8.606;2024-03-23T12:44:07;12.4868;55.3414
43414;DHT22;73638;49.676;8.606;2024-03-23T12:49:14;12.7031;55.8953
43414;DHT22;73638;49.676;8.606;2024-03-23T12:54:21;12.842;55.0347
43414;DHT22;73638;49.676;8.606;2024-03-23T12:59:28;12.9061;54.9004
43414;DHT22;73638;49.676;8.606;2024-03-23T13:04:34;12.6471;54.8501
43414;DHT22;73638;49.676;8.606;2024-03-23T13:09:41;12.6177;52.3568
43414;DHT22;73638;49.676;8.606;2024-03-23T13:14:48;12.8367;51.3481
43414;DHT22;73638;49.676;8.606;2024-03-23T13:19:55;13.093;51.6564
43414;DHT22;73638;49.676;8.606;2024-03-23T13:25:02;13.5416;51.7052
43414;DHT22;73638;49.676;8.606;2024-03-23T13:30:09;13.5977;51.2016
43414;DHT22;73638;49.676;8.606;2024-03-23T13:35:15;13.4855;51.0658
43414;DHT22;73638;49.676;8.606;2024-03-23T13:40:22;13.4508;50.7836
43414;DHT22;73638;49.676;8.606;2024-03-23T13:45:29;13.5069;50.7836
43414;DHT22;73638;49.676;8.606;2024-03-23T13:50:36;13.5203;50.9438
43414;DHT22;73638;49.676;8.606;2024-03-23T13:55:46;13.555;50.7836
43414;DHT22;73638;49.676;8.606;2024-03-23T14:00:50;13.814;50.9346
43414;DHT22;73638;49.676;8.606;2024-03-23T14:05:57;13.563;51.606
43414;DHT22;73638;49.676;8.606;2024-03-23T14:11:03;13.304;50.5379
43414;DHT22;73638;49.676;8.606;2024-03-23T14:16:10;13.3387;49.3095
43414;DHT22;73638;49.676;8.606;2024-03-23T14:21:17;13.4562;49.1249
43414;DHT22;73638;49.676;8.606;2024-03-23T14:26:24;13.296;49.247
43414;DHT22;73638;49.676;8.606;2024-03-23T14:31:30;12.9809;49.2348
43414;DHT22;73638;49.676;8.606;2024-03-23T14:36:37;12.639;50.1198
43414;DHT22;73638;49.676;8.606;2024-03-23T14:36:39;12.639;50.1198
43414;DHT22;73638;49.676;8.606;2024-03-23T14:41:45;12.4922;50.4143
43414;DHT22;73638;49.676;8.606;2024-03-23T14:46:52;12.388;49.0883
43414;DHT22;73638;49.676;8.606;2024-03-23T14:51:59;11.8513;53.2845
43414;DHT22;73638;49.676;8.606;2024-03-23T14:57:05;11.2638;56.4187
43414;DHT22;73638;49.676;8.606;2024-03-23T15:02:16;10.9434;57.7447
43414;DHT22;73638;49.676;8.606;2024-03-23T15:07:18;10.93;58.381
43414;DHT22;73638;49.676;8.606;2024-03-23T15:12:24;10.8179;58.2452
43414;DHT22;73638;49.676;8.606;2024-03-23T15:17:31;10.8446;58.5885
43414;DHT22;73638;49.676;8.606;2024-03-23T15:22:37;10.7404;60.383
43414;DHT22;73638;49.676;8.606;2024-03-23T15:27:44;10.2438;61.2558
43414;DHT22;73638;49.676;8.606;2024-03-23T15:32:50;10.7538;60.3586
43414;DHT22;73638;49.676;8.606;2024-03-23T15:37:57;10.8446;59.8306
43414;DHT22;73638;49.676;8.606;2024-03-23T15:43:04;10.7057;58.7365
43414;DHT22;73638;49.676;8.606;2024-03-23T15:48:11;10.6149;59.5483
43414;DHT22;73638;49.676;8.606;2024-03-23T15:53:18;10.6016;60.7889
43414;DHT22;73638;49.676;8.606;2024-03-23T15:58:25;11.0342;60.412
43414;DHT22;73638;49.676;8.606;2024-03-23T16:03:32;11.6484;59.4171
43414;DHT22;73638;49.676;8.606;2024-03-23T16:08:40;12.3827;57.9965
43414;DHT22;73638;49.676;8.606;2024-03-23T16:13:47;12.5269;57.9095
43414;DHT22;73638;49.676;8.606;2024-03-23T16:18:53;11.7952;57.0077
43414;DHT22;73638;49.676;8.606;2024-03-23T16:23:59;11.4374;56.8353
43414;DHT22;73638;49.676;8.606;2024-03-23T16:29:06;11.1864;56.762
43414;DHT22;73638;49.676;8.606;2024-03-23T16:34:12;11.2024;57.7447
43414;DHT22;73638;49.676;8.606;2024-03-23T16:39:19;11.1383;57.7081
43414;DHT22;73638;49.676;8.606;2024-03-23T16:44:28;11.0262;58.5565
43414;DHT22;73638;49.676;8.606;2024-03-23T16:49:34;10.6977;58.9578
43414;DHT22;73638;49.676;8.606;2024-03-23T16:54:40;10.6577;58.9822
43414;DHT22;73638;49.676;8.606;2024-03-23T16:59:47;10.5589;60.0763
43414;DHT22;73638;49.676;8.606;2024-03-23T17:04:55;10.3639;59.2523
43414;DHT22;73638;49.676;8.606;2024-03-23T17:10:00;10.209;59.855
43414;DHT22;73638;49.676;8.606;2024-03-23T17:15:08;10.1263;60.2243
43414;DHT22;73638;49.676;8.606;2024-03-23T17:20:14;10.0008;60.6409
43414;DHT22;73638;49.676;8.606;2024-03-23T17:25:20;9.966;60.9247
43414;DHT22;73638;49.676;8.606;2024-03-23T17:30:27;9.9794;60.8499
43414;DHT22;73638;49.676;8.606;2024-03-23T17:35:33;9.95;60.8866
43414;DHT22;73638;49.676;8.606;2024-03-23T17:40:40;9.9447;60.7279
43414;DHT22;73638;49.676;8.606;2024-03-23T17:45:47;9.7284;60.0397
43414;DHT22;73638;49.676;8.606;2024-03-23T17:51:01;9.5815;59.4003
43414;DHT22;73638;49.676;8.606;2024-03-23T17:56:03;9.5308;59.7391
43414;DHT22;73638;49.676;8.606;2024-03-23T18:01:07;9.4213;59.9603
43414;DHT22;73638;49.676;8.606;2024-03-23T18:06:13;9.4266;60.0336
43414;DHT22;73638;49.676;8.606;2024-03-23T18:11:19;9.3706;59.7879
43414;DHT22;73638;49.676;8.606;2024-03-23T18:16:26;9.2584;59.8001
43414;DHT22;73638;49.676;8.606;2024-03-23T18:21:33;9.197;60.1205
43414;DHT22;73638;49.676;8.606;2024-03-23T18:26:39;9.0635;60.1816
43414;DHT22;73638;49.676;8.606;2024-03-23T18:31:46;8.9166;60.5371
43414;DHT22;73638;49.676;8.606;2024-03-23T18:36:55;8.9166;60.4639
43414;DHT22;73638;49.676;8.606;2024-03-23T18:41:59;8.7911;60.7217
43414;DHT22;73638;49.676;8.606;2024-03-23T18:47:05;8.7778;61.1154
43414;DHT22;73638;49.676;8.606;2024-03-23T18:52:12;8.9593;61.4588
43414;DHT22;73638;49.676;8.606;2024-03-23T18:57:19;8.7697;61.3733
43414;DHT22;73638;49.676;8.606;2024-03-23T19:02:25;8.7137;61.4099
43414;DHT22;73638;49.676;8.606;2024-03-23T19:07:32;8.7697;61.4588
43414;DHT22;73638;49.676;8.606;2024-03-23T19:12:38;8.5481;61.6068
43414;DHT22;73638;49.676;8.606;2024-03-23T19:17:45;8.2757;61.7426
43414;DHT22;73638;49.676;8.606;2024-03-23T19:22:52;8.4012;62.1225
43414;DHT22;73638;49.676;8.606;2024-03-23T19:27:59;8.5054;62.0127
43414;DHT22;73638;49.676;8.606;2024-03-23T19:33:05;8.3719;61.9379
43414;DHT22;73638;49.676;8.606;2024-03-23T19:38:11;8.3932;61.8524
43414;DHT22;73638;49.676;8.606;2024-03-23T19:43:18;8.3371;61.9638
43414;DHT22;73638;49.676;8.606;2024-03-23T19:48:24;8.3238;61.6434
43414;DHT22;73638;49.676;8.606;2024-03-23T19:53:31;8.4573;61.9257
43414;DHT22;73638;49.676;8.606;2024-03-23T19:58:38;8.5962;62.0859
43414;DHT22;73638;49.676;8.606;2024-03-23T20:03:45;8.6309;61.6678
43414;DHT22;73638;49.676;8.606;2024-03-23T20:08:51;8.5962;61.68
43414;DHT22;73638;49.676;8.606;2024-03-23T20:13:58;8.8605;61.9516
43414;DHT22;73638;49.676;8.606;2024-03-23T20:19:04;8.9593;61.619
43414;DHT22;73638;49.676;8.606;2024-03-23T20:24:11;9.0074;61.5579
43414;DHT22;73638;49.676;8.606;2024-03-23T20:29:18;9.1676;61.5457
43414;DHT22;73638;49.676;8.606;2024-03-23T20:34:24;9.0635;61.2757
43414;DHT22;73638;49.676;8.606;2024-03-23T20:39:31;9.0288;61.5946
43414;DHT22;73638;49.676;8.606;2024-03-23T20:44:38;8.946;61.6556
43414;DHT22;73638;49.676;8.606;2024-03-23T20:49:44;8.695;61.9013
43414;DHT22;73638;49.676;8.606;2024-03-23T20:54:51;8.6309;61.9516
43414;DHT22;73638;49.676;8.606;2024-03-23T20:59:57;8.5481;62.4308
43414;DHT22;73638;49.676;8.606;2024-03-23T21:05:05;8.4493;62.0005
43414;DHT22;73638;49.676;8.606;2024-03-23T21:10:10;8.3024;62.1973
43414;DHT22;73638;49.676;8.606;2024-03-23T21:15:17;8.3238;62.0615
43414;DHT22;73638;49.676;8.606;2024-03-23T21:20:23;8.2757;62.7863
43414;DHT22;73638;49.676;8.606;2024-03-23T21:25:30;8.5134;62.9709
43414;DHT22;73638;49.676;8.606;2024-03-23T21:30:37;8.4359;63.3143
43414;DHT22;73638;49.676;8.606;2024-03-23T21:35:44;8.5668;63.1052
43414;DHT22;73638;49.676;8.606;2024-03-23T21:40:52;8.3932;63.032
43414;DHT22;73638;49.676;8.606;2024-03-23T21:45:57;8.4707;63.0686
43414;DHT22;73638;49.676;8.606;2024-03-23T21:51:04;8.6229;63.5477
43414;DHT22;73638;49.676;8.606;2024-03-23T21:56:09;8.7697;63.4379
43414;DHT22;73638;49.676;8.606;2024-03-23T22:01:16;8.7991;63.8193
43414;DHT22;73638;49.676;8.606;2024-03-23T22:06:23;8.8045;63.7568
43414;DHT22;73638;49.676;8.606;2024-03-23T22:11:29;8.7778;63.8682
43414;DHT22;73638;49.676;8.606;2024-03-23T22:16:36;8.7564;64.065
43414;DHT22;73638;49.676;8.606;2024-03-23T22:21:42;8.6656;64.0772
43414;DHT22;73638;49.676;8.606;2024-03-23T22:26:49;8.7564;64.1016
43414;DHT22;73638;49.676;8.606;2024-03-23T22:31:55;8.5828;63.5477
43414;DHT22;73638;49.676;8.606;2024-03-23T22:37:02;8.4359;63.8926
43414;DHT22;73638;49.676;8.606;2024-03-23T22:42:09;8.5615;64.7776
43414;DHT22;73638;49.676;8.606;2024-03-23T22:47:15;8.6522;64.6662
43414;DHT22;73638;49.676;8.606;2024-03-23T22:52:22;8.6095;64.593
43414;DHT22;73638;49.676;8.606;2024-03-23T22:57:28;8.6389;64.8264
43414;DHT22;73638;49.676;8.606;2024-03-23T23:02:34;8.7778;64.7654
43414;DHT22;73638;49.676;8.606;2024-03-23T23:07:41;8.8472;65.0477
43414;DHT22;73638;49.676;8.606;2024-03-23T23:12:48;8.7991;64.5563
43414;DHT22;73638;49.676;8.606;2024-03-23T23:17:54;8.8685;65.0965
43414;DHT22;73638;49.676;8.606;2024-03-23T23:23:01;8.9166;64.9241
43414;DHT22;73638;49.676;8.606;2024-03-23T23:28:08;8.8338;64.8753
43414;DHT22;73638;49.676;8.606;2024-03-23T23:33:14;8.8472;65.391
43414;DHT22;73638;49.676;8.606;2024-03-23T23:38:21;8.735;64.7776
43414;DHT22;73638;49.676;8.606;2024-03-23T23:43:27;8.6389;64.7028
43414;DHT22;73638;49.676;8.606;2024-03-23T23:48:34;8.6095;64.9119
43414;DHT22;73638;49.676;8.606;2024-03-23T23:53:41;8.735;65.3178
43414;DHT22;73638;49.676;8.606;2024-03-23T23:58:47;8.687;65.6733
